sensor_id;sensor_type;location;lat;lon;timestamp;temperature;humidity
73780;SHT30;62093;37.614;15.072;2022-11-20T00:00:57;19.49;64.90
73780;SHT30;62093;37.614;15.072;2022-11-20T00:03:23;19.47;64.97
73780;SHT30;62093;37.614;15.072;2022-11-20T00:05:49;19.47;64.92
73780;SHT30;62093;37.614;15.072;2022-11-20T00:08:15;19.46;64.81
73780;SHT30;62093;37.614;15.072;2022-11-20T00:10:40;19.47;64.84
73780;SHT30;62093;37.614;15.072;2022-11-20T00:13:07;19.47;64.88
73780;SHT30;62093;37.614;15.072;2022-11-20T00:15:33;19.47;64.98
73780;SHT30;62093;37.614;15.072;2022-11-20T00:17:59;19.47;64.91
73780;SHT30;62093;37.614;15.072;2022-11-20T00:20:25;19.47;64.88
73780;SHT30;62093;37.614;15.072;2022-11-20T00:22:51;19.45;64.83
73780;SHT30;62093;37.614;15.072;2022-11-20T00:25:17;19.45;64.87
73780;SHT30;62093;37.614;15.072;2022-11-20T00:27:43;19.45;64.84
73780;SHT30;62093;37.614;15.072;2022-11-20T00:30:09;19.46;64.87
73780;SHT30;62093;37.614;15.072;2022-11-20T00:32:35;19.45;64.53
73780;SHT30;62093;37.614;15.072;2022-11-20T00:35:01;19.45;64.82
73780;SHT30;62093;37.614;15.072;2022-11-20T00:37:26;19.45;64.72
73780;SHT30;62093;37.614;15.072;2022-11-20T00:39:52;19.46;64.81
73780;SHT30;62093;37.614;15.072;2022-11-20T00:42:18;19.43;64.81
73780;SHT30;62093;37.614;15.072;2022-11-20T00:44:44;19.45;64.75
73780;SHT30;62093;37.614;15.072;2022-11-20T00:47:10;19.46;64.88
73780;SHT30;62093;37.614;15.072;2022-11-20T00:49:36;19.49;64.82
73780;SHT30;62093;37.614;15.072;2022-11-20T00:52:02;19.45;64.60
73780;SHT30;62093;37.614;15.072;2022-11-20T00:54:28;19.46;64.76
73780;SHT30;62093;37.614;15.072;2022-11-20T00:56:53;19.46;64.80
73780;SHT30;62093;37.614;15.072;2022-11-20T00:59:19;19.43;64.68
73780;SHT30;62093;37.614;15.072;2022-11-20T01:01:45;19.45;64.72
73780;SHT30;62093;37.614;15.072;2022-11-20T01:04:11;19.45;64.70
73780;SHT30;62093;37.614;15.072;2022-11-20T01:06:38;19.42;64.59
73780;SHT30;62093;37.614;15.072;2022-11-20T01:09:07;19.43;64.60
73780;SHT30;62093;37.614;15.072;2022-11-20T01:11:38;19.45;64.56
73780;SHT30;62093;37.614;15.072;2022-11-20T01:14:06;19.45;64.65
73780;SHT30;62093;37.614;15.072;2022-11-20T01:16:35;19.45;64.72
73780;SHT30;62093;37.614;15.072;2022-11-20T01:19:03;19.40;64.57
73780;SHT30;62093;37.614;15.072;2022-11-20T01:21:34;19.43;64.68
73780;SHT30;62093;37.614;15.072;2022-11-20T01:24:01;19.45;64.63
73780;SHT30;62093;37.614;15.072;2022-11-20T01:26:31;19.43;64.71
73780;SHT30;62093;37.614;15.072;2022-11-20T01:28:59;19.42;64.53
73780;SHT30;62093;37.614;15.072;2022-11-20T01:31:30;19.43;64.45
73780;SHT30;62093;37.614;15.072;2022-11-20T01:33:58;19.42;64.58
73780;SHT30;62093;37.614;15.072;2022-11-20T01:36:30;19.42;64.83
73780;SHT30;62093;37.614;15.072;2022-11-20T01:38:59;19.45;64.74
73780;SHT30;62093;37.614;15.072;2022-11-20T01:41:28;19.42;64.83
73780;SHT30;62093;37.614;15.072;2022-11-20T01:44:15;19.42;64.97
73780;SHT30;62093;37.614;15.072;2022-11-20T01:47:01;19.42;64.93
73780;SHT30;62093;37.614;15.072;2022-11-20T01:49:58;19.40;64.79
73780;SHT30;62093;37.614;15.072;2022-11-20T01:52:36;19.39;64.91
73780;SHT30;62093;37.614;15.072;2022-11-20T01:55:09;19.37;64.94
73780;SHT30;62093;37.614;15.072;2022-11-20T01:57:37;19.39;64.96
73780;SHT30;62093;37.614;15.072;2022-11-20T02:00:10;19.36;65.02
73780;SHT30;62093;37.614;15.072;2022-11-20T02:02:47;19.42;64.89
73780;SHT30;62093;37.614;15.072;2022-11-20T02:05:35;19.42;64.89
73780;SHT30;62093;37.614;15.072;2022-11-20T02:08:03;19.39;64.76
73780;SHT30;62093;37.614;15.072;2022-11-20T02:10:30;19.39;64.91
73780;SHT30;62093;37.614;15.072;2022-11-20T02:12:56;19.37;64.89
73780;SHT30;62093;37.614;15.072;2022-11-20T02:15:40;19.40;64.71
73780;SHT30;62093;37.614;15.072;2022-11-20T02:18:07;19.39;64.75
73780;SHT30;62093;37.614;15.072;2022-11-20T02:20:34;19.40;64.57
73780;SHT30;62093;37.614;15.072;2022-11-20T02:23:21;19.40;64.58
73780;SHT30;62093;37.614;15.072;2022-11-20T02:25:50;19.42;64.60
73780;SHT30;62093;37.614;15.072;2022-11-20T02:28:17;19.39;64.74
73780;SHT30;62093;37.614;15.072;2022-11-20T02:30:43;19.37;64.60
73780;SHT30;62093;37.614;15.072;2022-11-20T02:33:09;19.35;64.66
73780;SHT30;62093;37.614;15.072;2022-11-20T02:35:39;19.39;64.83
73780;SHT30;62093;37.614;15.072;2022-11-20T02:38:06;19.36;64.71
73780;SHT30;62093;37.614;15.072;2022-11-20T02:40:32;19.37;64.79
73780;SHT30;62093;37.614;15.072;2022-11-20T02:42:57;19.37;64.53
73780;SHT30;62093;37.614;15.072;2022-11-20T02:45:23;19.36;64.64
73780;SHT30;62093;37.614;15.072;2022-11-20T02:47:50;19.39;64.61
73780;SHT30;62093;37.614;15.072;2022-11-20T02:50:16;19.36;64.51
73780;SHT30;62093;37.614;15.072;2022-11-20T02:52:42;19.36;64.54
73780;SHT30;62093;37.614;15.072;2022-11-20T02:55:08;19.40;64.75
73780;SHT30;62093;37.614;15.072;2022-11-20T02:57:34;19.37;64.69
73780;SHT30;62093;37.614;15.072;2022-11-20T03:00:00;19.37;64.71
73780;SHT30;62093;37.614;15.072;2022-11-20T03:02:30;19.37;64.78
73780;SHT30;62093;37.614;15.072;2022-11-20T03:04:55;19.33;64.63
73780;SHT30;62093;37.614;15.072;2022-11-20T03:07:21;19.32;64.18
73780;SHT30;62093;37.614;15.072;2022-11-20T03:09:47;19.32;64.59
73780;SHT30;62093;37.614;15.072;2022-11-20T03:12:13;19.33;64.55
73780;SHT30;62093;37.614;15.072;2022-11-20T03:14:39;19.32;64.52
73780;SHT30;62093;37.614;15.072;2022-11-20T03:17:05;19.30;64.78
73780;SHT30;62093;37.614;15.072;2022-11-20T03:19:30;19.32;64.65
73780;SHT30;62093;37.614;15.072;2022-11-20T03:21:56;19.30;64.60
73780;SHT30;62093;37.614;15.072;2022-11-20T03:24:22;19.25;64.37
73780;SHT30;62093;37.614;15.072;2022-11-20T03:26:48;19.26;64.77
73780;SHT30;62093;37.614;15.072;2022-11-20T03:29:14;19.29;64.79
73780;SHT30;62093;37.614;15.072;2022-11-20T03:31:40;19.27;64.82
73780;SHT30;62093;37.614;15.072;2022-11-20T03:34:08;19.27;64.98
73780;SHT30;62093;37.614;15.072;2022-11-20T03:36:37;19.27;65.05
73780;SHT30;62093;37.614;15.072;2022-11-20T03:39:03;19.27;64.98
73780;SHT30;62093;37.614;15.072;2022-11-20T03:41:30;19.26;64.90
73780;SHT30;62093;37.614;15.072;2022-11-20T03:43:59;19.25;64.95
73780;SHT30;62093;37.614;15.072;2022-11-20T03:46:26;19.22;65.05
73780;SHT30;62093;37.614;15.072;2022-11-20T03:48:53;19.23;65.20
73780;SHT30;62093;37.614;15.072;2022-11-20T03:51:24;19.23;65.18
73780;SHT30;62093;37.614;15.072;2022-11-20T03:53:51;19.25;65.27
73780;SHT30;62093;37.614;15.072;2022-11-20T03:56:19;19.23;65.33
73780;SHT30;62093;37.614;15.072;2022-11-20T03:58:46;19.22;65.38
73780;SHT30;62093;37.614;15.072;2022-11-20T04:01:20;19.23;65.27
73780;SHT30;62093;37.614;15.072;2022-11-20T04:03:47;19.22;65.36
73780;SHT30;62093;37.614;15.072;2022-11-20T04:06:16;19.20;65.30
73780;SHT30;62093;37.614;15.072;2022-11-20T04:08:43;19.19;65.39
73780;SHT30;62093;37.614;15.072;2022-11-20T04:11:13;19.16;65.44
73780;SHT30;62093;37.614;15.072;2022-11-20T04:13:40;19.18;65.37
73780;SHT30;62093;37.614;15.072;2022-11-20T04:16:07;19.16;65.43
73780;SHT30;62093;37.614;15.072;2022-11-20T04:18:33;19.18;65.51
73780;SHT30;62093;37.614;15.072;2022-11-20T04:20:59;19.15;65.46
73780;SHT30;62093;37.614;15.072;2022-11-20T04:23:25;19.14;65.45
73780;SHT30;62093;37.614;15.072;2022-11-20T04:25:52;19.14;65.47
73780;SHT30;62093;37.614;15.072;2022-11-20T04:28:17;19.15;65.46
73780;SHT30;62093;37.614;15.072;2022-11-20T04:30:43;19.12;65.30
73780;SHT30;62093;37.614;15.072;2022-11-20T04:33:09;19.08;65.51
73780;SHT30;62093;37.614;15.072;2022-11-20T04:35:35;19.09;65.53
73780;SHT30;62093;37.614;15.072;2022-11-20T04:38:01;19.08;65.66
73780;SHT30;62093;37.614;15.072;2022-11-20T04:40:28;19.04;65.67
73780;SHT30;62093;37.614;15.072;2022-11-20T04:42:54;19.06;65.49
73780;SHT30;62093;37.614;15.072;2022-11-20T04:45:21;19.06;65.60
73780;SHT30;62093;37.614;15.072;2022-11-20T04:47:47;19.05;65.58
73780;SHT30;62093;37.614;15.072;2022-11-20T04:50:13;19.04;65.82
73780;SHT30;62093;37.614;15.072;2022-11-20T04:52:39;19.05;65.77
73780;SHT30;62093;37.614;15.072;2022-11-20T04:55:05;19.02;65.72
73780;SHT30;62093;37.614;15.072;2022-11-20T04:57:31;19.01;65.71
73780;SHT30;62093;37.614;15.072;2022-11-20T04:59:56;19.04;65.70
73780;SHT30;62093;37.614;15.072;2022-11-20T05:02:22;19.04;65.82
73780;SHT30;62093;37.614;15.072;2022-11-20T05:04:48;19.06;65.85
73780;SHT30;62093;37.614;15.072;2022-11-20T05:07:14;19.02;65.74
73780;SHT30;62093;37.614;15.072;2022-11-20T05:09:40;19.01;65.81
73780;SHT30;62093;37.614;15.072;2022-11-20T05:12:07;18.99;65.87
73780;SHT30;62093;37.614;15.072;2022-11-20T05:14:34;18.99;65.88
73780;SHT30;62093;37.614;15.072;2022-11-20T05:16:59;18.99;65.85
73780;SHT30;62093;37.614;15.072;2022-11-20T05:19:25;19.04;65.87
73780;SHT30;62093;37.614;15.072;2022-11-20T05:21:51;19.01;65.79
73780;SHT30;62093;37.614;15.072;2022-11-20T05:24:17;19.02;65.93
73780;SHT30;62093;37.614;15.072;2022-11-20T05:26:43;18.99;65.86
73780;SHT30;62093;37.614;15.072;2022-11-20T05:29:10;18.98;65.88
73780;SHT30;62093;37.614;15.072;2022-11-20T05:31:39;18.98;65.80
73780;SHT30;62093;37.614;15.072;2022-11-20T05:34:05;18.95;65.91
73780;SHT30;62093;37.614;15.072;2022-11-20T05:36:32;19.02;65.86
73780;SHT30;62093;37.614;15.072;2022-11-20T05:38:57;19.04;65.87
73780;SHT30;62093;37.614;15.072;2022-11-20T05:41:24;18.96;65.57
73780;SHT30;62093;37.614;15.072;2022-11-20T05:43:50;18.96;65.63
73780;SHT30;62093;37.614;15.072;2022-11-20T05:46:18;18.94;65.49
73780;SHT30;62093;37.614;15.072;2022-11-20T05:48:45;18.96;65.72
73780;SHT30;62093;37.614;15.072;2022-11-20T05:51:15;18.94;65.68
73780;SHT30;62093;37.614;15.072;2022-11-20T05:53:41;18.99;65.66
73780;SHT30;62093;37.614;15.072;2022-11-20T05:56:10;18.96;65.80
73780;SHT30;62093;37.614;15.072;2022-11-20T05:58:37;18.96;65.72
73780;SHT30;62093;37.614;15.072;2022-11-20T06:01:10;18.96;65.69
73780;SHT30;62093;37.614;15.072;2022-11-20T06:03:36;18.95;65.43
73780;SHT30;62093;37.614;15.072;2022-11-20T06:06:04;18.96;65.71
73780;SHT30;62093;37.614;15.072;2022-11-20T06:08:30;18.95;65.68
73780;SHT30;62093;37.614;15.072;2022-11-20T06:10:56;18.98;65.56
73780;SHT30;62093;37.614;15.072;2022-11-20T06:13:22;18.95;65.14
73780;SHT30;62093;37.614;15.072;2022-11-20T06:15:52;18.96;65.69
73780;SHT30;62093;37.614;15.072;2022-11-20T06:18:19;18.96;65.47
73780;SHT30;62093;37.614;15.072;2022-11-20T06:20:46;18.96;65.65
73780;SHT30;62093;37.614;15.072;2022-11-20T06:23:13;18.98;65.64
73780;SHT30;62093;37.614;15.072;2022-11-20T06:25:40;18.98;65.37
73780;SHT30;62093;37.614;15.072;2022-11-20T06:28:07;18.94;65.45
73780;SHT30;62093;37.614;15.072;2022-11-20T06:30:33;18.94;65.50
73780;SHT30;62093;37.614;15.072;2022-11-20T06:32:59;18.94;65.49
73780;SHT30;62093;37.614;15.072;2022-11-20T06:35:24;18.95;65.74
73780;SHT30;62093;37.614;15.072;2022-11-20T06:37:50;18.94;65.48
73780;SHT30;62093;37.614;15.072;2022-11-20T06:40:16;18.95;65.75
73780;SHT30;62093;37.614;15.072;2022-11-20T06:42:42;18.89;65.45
73780;SHT30;62093;37.614;15.072;2022-11-20T06:45:08;18.91;65.65
73780;SHT30;62093;37.614;15.072;2022-11-20T06:47:34;18.92;65.47
73780;SHT30;62093;37.614;15.072;2022-11-20T06:50:00;18.92;65.58
73780;SHT30;62093;37.614;15.072;2022-11-20T06:52:26;18.94;65.74
73780;SHT30;62093;37.614;15.072;2022-11-20T06:54:52;18.92;65.46
73780;SHT30;62093;37.614;15.072;2022-11-20T06:57:18;18.94;65.50
73780;SHT30;62093;37.614;15.072;2022-11-20T06:59:44;18.95;65.55
73780;SHT30;62093;37.614;15.072;2022-11-20T07:02:12;18.95;65.69
73780;SHT30;62093;37.614;15.072;2022-11-20T07:04:39;18.94;65.25
73780;SHT30;62093;37.614;15.072;2022-11-20T07:07:05;18.91;65.22
73780;SHT30;62093;37.614;15.072;2022-11-20T07:09:32;18.92;65.44
73780;SHT30;62093;37.614;15.072;2022-11-20T07:11:59;18.92;65.22
73780;SHT30;62093;37.614;15.072;2022-11-20T07:14:24;18.94;65.37
73780;SHT30;62093;37.614;15.072;2022-11-20T07:16:50;18.94;65.49
73780;SHT30;62093;37.614;15.072;2022-11-20T07:19:16;18.94;65.40
73780;SHT30;62093;37.614;15.072;2022-11-20T07:21:42;18.89;65.38
73780;SHT30;62093;37.614;15.072;2022-11-20T07:24:08;18.89;65.22
73780;SHT30;62093;37.614;15.072;2022-11-20T07:26:33;18.94;65.47
73780;SHT30;62093;37.614;15.072;2022-11-20T07:28:59;18.95;65.38
73780;SHT30;62093;37.614;15.072;2022-11-20T07:31:25;18.91;65.45
73780;SHT30;62093;37.614;15.072;2022-11-20T07:33:51;18.92;65.12
73780;SHT30;62093;37.614;15.072;2022-11-20T07:36:16;18.95;65.06
73780;SHT30;62093;37.614;15.072;2022-11-20T07:38:42;18.94;65.25
73780;SHT30;62093;37.614;15.072;2022-11-20T07:41:08;18.94;65.23
73780;SHT30;62093;37.614;15.072;2022-11-20T07:43:34;18.91;65.42
73780;SHT30;62093;37.614;15.072;2022-11-20T07:45:59;18.94;65.44
73780;SHT30;62093;37.614;15.072;2022-11-20T07:48:25;18.96;65.68
73780;SHT30;62093;37.614;15.072;2022-11-20T07:50:55;18.96;65.58
73780;SHT30;62093;37.614;15.072;2022-11-20T07:53:22;19.02;65.66
73780;SHT30;62093;37.614;15.072;2022-11-20T07:55:48;19.02;65.74
73780;SHT30;62093;37.614;15.072;2022-11-20T07:58:14;19.06;66.06
73780;SHT30;62093;37.614;15.072;2022-11-20T08:00:41;19.04;66.08
73780;SHT30;62093;37.614;15.072;2022-11-20T08:03:07;19.04;66.02
73780;SHT30;62093;37.614;15.072;2022-11-20T08:05:33;19.05;65.84
73780;SHT30;62093;37.614;15.072;2022-11-20T08:09:39;19.11;65.81
73780;SHT30;62093;37.614;15.072;2022-11-20T08:12:05;19.14;65.82
73780;SHT30;62093;37.614;15.072;2022-11-20T08:17:13;19.20;65.52
73780;SHT30;62093;37.614;15.072;2022-11-20T08:19:38;19.12;65.39
73780;SHT30;62093;37.614;15.072;2022-11-20T08:22:04;19.06;65.38
73780;SHT30;62093;37.614;15.072;2022-11-20T08:24:30;19.06;65.65
73780;SHT30;62093;37.614;15.072;2022-11-20T08:26:57;19.04;65.72
73780;SHT30;62093;37.614;15.072;2022-11-20T08:29:25;18.99;65.75
73780;SHT30;62093;37.614;15.072;2022-11-20T08:31:51;18.98;65.53
73780;SHT30;62093;37.614;15.072;2022-11-20T08:34:17;19.02;65.85
73780;SHT30;62093;37.614;15.072;2022-11-20T08:36:43;18.98;65.77
73780;SHT30;62093;37.614;15.072;2022-11-20T08:39:11;18.95;65.96
73780;SHT30;62093;37.614;15.072;2022-11-20T08:41:37;18.95;65.82
73780;SHT30;62093;37.614;15.072;2022-11-20T08:44:04;18.95;65.75
73780;SHT30;62093;37.614;15.072;2022-11-20T08:46:34;18.92;66.15
73780;SHT30;62093;37.614;15.072;2022-11-20T08:49:03;18.92;66.24
73780;SHT30;62093;37.614;15.072;2022-11-20T08:51:30;18.91;65.80
73780;SHT30;62093;37.614;15.072;2022-11-20T08:53:56;18.92;66.17
73780;SHT30;62093;37.614;15.072;2022-11-20T08:56:21;18.89;65.86
73780;SHT30;62093;37.614;15.072;2022-11-20T08:58:50;18.91;66.05
73780;SHT30;62093;37.614;15.072;2022-11-20T09:01:16;18.92;66.25
73780;SHT30;62093;37.614;15.072;2022-11-20T09:03:42;18.89;66.22
73780;SHT30;62093;37.614;15.072;2022-11-20T09:06:08;18.87;66.49
73780;SHT30;62093;37.614;15.072;2022-11-20T09:08:34;18.89;66.22
73780;SHT30;62093;37.614;15.072;2022-11-20T09:11:01;18.91;66.24
73780;SHT30;62093;37.614;15.072;2022-11-20T09:13:28;18.84;66.53
73780;SHT30;62093;37.614;15.072;2022-11-20T09:15:55;18.85;66.31
73780;SHT30;62093;37.614;15.072;2022-11-20T09:18:22;18.83;66.33
73780;SHT30;62093;37.614;15.072;2022-11-20T09:20:47;18.79;66.28
73780;SHT30;62093;37.614;15.072;2022-11-20T09:23:14;18.83;66.01
73780;SHT30;62093;37.614;15.072;2022-11-20T09:25:40;18.81;66.17
73780;SHT30;62093;37.614;15.072;2022-11-20T09:28:06;18.79;66.23
73780;SHT30;62093;37.614;15.072;2022-11-20T09:30:32;18.78;66.33
73780;SHT30;62093;37.614;15.072;2022-11-20T09:32:58;18.84;66.58
73780;SHT30;62093;37.614;15.072;2022-11-20T09:35:24;18.78;66.33
73780;SHT30;62093;37.614;15.072;2022-11-20T09:37:50;18.83;66.24
73780;SHT30;62093;37.614;15.072;2022-11-20T09:40:27;18.81;66.54
73780;SHT30;62093;37.614;15.072;2022-11-20T09:43:01;18.76;66.26
73780;SHT30;62093;37.614;15.072;2022-11-20T09:45:54;18.79;66.01
73780;SHT30;62093;37.614;15.072;2022-11-20T09:56:25;18.74;66.43
73780;SHT30;62093;37.614;15.072;2022-11-20T09:58:52;18.74;66.19
73780;SHT30;62093;37.614;15.072;2022-11-20T10:01:21;18.68;66.62
73780;SHT30;62093;37.614;15.072;2022-11-20T10:03:58;18.71;67.05
73780;SHT30;62093;37.614;15.072;2022-11-20T10:09:31;18.83;66.78
73780;SHT30;62093;37.614;15.072;2022-11-20T10:25:40;18.83;68.14
73780;SHT30;62093;37.614;15.072;2022-11-20T10:30:42;19.04;67.74
73780;SHT30;62093;37.614;15.072;2022-11-20T10:35:56;18.99;67.83
73780;SHT30;62093;37.614;15.072;2022-11-20T10:38:43;18.96;68.00
73780;SHT30;62093;37.614;15.072;2022-11-20T10:41:19;18.94;68.18
73780;SHT30;62093;37.614;15.072;2022-11-20T10:44:24;19.08;67.91
73780;SHT30;62093;37.614;15.072;2022-11-20T10:47:13;19.02;67.89
73780;SHT30;62093;37.614;15.072;2022-11-20T10:49:41;19.05;68.04
73780;SHT30;62093;37.614;15.072;2022-11-20T10:52:13;18.98;67.88
73780;SHT30;62093;37.614;15.072;2022-11-20T10:55:01;19.02;67.95
73780;SHT30;62093;37.614;15.072;2022-11-20T10:57:42;18.99;68.11
73780;SHT30;62093;37.614;15.072;2022-11-20T11:00:13;18.96;68.09
73780;SHT30;62093;37.614;15.072;2022-11-20T11:02:43;18.95;68.21
73780;SHT30;62093;37.614;15.072;2022-11-20T11:05:38;19.01;67.97
73780;SHT30;62093;37.614;15.072;2022-11-20T11:08:12;18.96;68.49
73780;SHT30;62093;37.614;15.072;2022-11-20T11:13:26;18.94;68.62
73780;SHT30;62093;37.614;15.072;2022-11-20T11:15:53;18.91;68.71
73780;SHT30;62093;37.614;15.072;2022-11-20T11:18:32;18.91;68.65
73780;SHT30;62093;37.614;15.072;2022-11-20T11:21:04;18.89;68.63
73780;SHT30;62093;37.614;15.072;2022-11-20T11:23:36;18.89;68.66
73780;SHT30;62093;37.614;15.072;2022-11-20T11:26:21;18.92;68.73
73780;SHT30;62093;37.614;15.072;2022-11-20T11:29:01;18.91;68.68
73780;SHT30;62093;37.614;15.072;2022-11-20T11:31:33;18.92;68.14
73780;SHT30;62093;37.614;15.072;2022-11-20T11:36:38;18.91;67.76
73780;SHT30;62093;37.614;15.072;2022-11-20T11:39:06;18.88;67.62
73780;SHT30;62093;37.614;15.072;2022-11-20T11:41:33;18.87;67.47
73780;SHT30;62093;37.614;15.072;2022-11-20T11:44:15;18.89;67.35
73780;SHT30;62093;37.614;15.072;2022-11-20T11:47:02;18.84;67.79
73780;SHT30;62093;37.614;15.072;2022-11-20T11:49:29;18.85;67.16
73780;SHT30;62093;37.614;15.072;2022-11-20T11:52:12;18.84;67.43
73780;SHT30;62093;37.614;15.072;2022-11-20T12:00:02;18.83;66.49
73780;SHT30;62093;37.614;15.072;2022-11-20T12:05:23;18.85;65.89
73780;SHT30;62093;37.614;15.072;2022-11-20T12:10:45;18.83;66.57
73780;SHT30;62093;37.614;15.072;2022-11-20T12:15:44;18.79;66.31
73780;SHT30;62093;37.614;15.072;2022-11-20T12:18:16;18.83;66.94
73780;SHT30;62093;37.614;15.072;2022-11-20T12:20:55;18.85;66.62
73780;SHT30;62093;37.614;15.072;2022-11-20T12:23:35;18.87;67.32
73780;SHT30;62093;37.614;15.072;2022-11-20T12:26:26;18.88;67.09
73780;SHT30;62093;37.614;15.072;2022-11-20T12:34:06;18.89;67.55
73780;SHT30;62093;37.614;15.072;2022-11-20T12:39:58;18.99;67.55
73780;SHT30;62093;37.614;15.072;2022-11-20T12:43:04;18.99;67.79
73780;SHT30;62093;37.614;15.072;2022-11-20T12:48:42;18.94;67.51
73780;SHT30;62093;37.614;15.072;2022-11-20T13:07:43;18.95;66.25
73780;SHT30;62093;37.614;15.072;2022-11-20T13:10:26;18.92;66.57
73780;SHT30;62093;37.614;15.072;2022-11-20T13:15:45;18.95;66.61
73780;SHT30;62093;37.614;15.072;2022-11-20T13:18:13;18.92;66.86
73780;SHT30;62093;37.614;15.072;2022-11-20T13:20:44;18.89;66.47
73780;SHT30;62093;37.614;15.072;2022-11-20T13:23:10;18.89;66.39
73780;SHT30;62093;37.614;15.072;2022-11-20T13:25:38;18.94;65.52
73780;SHT30;62093;37.614;15.072;2022-11-20T13:28:27;18.92;67.01
73780;SHT30;62093;37.614;15.072;2022-11-20T13:30:57;18.92;67.13
73780;SHT30;62093;37.614;15.072;2022-11-20T13:33:30;18.92;66.95
73780;SHT30;62093;37.614;15.072;2022-11-20T13:36:02;18.89;67.10
73780;SHT30;62093;37.614;15.072;2022-11-20T13:38:46;18.84;66.67
73780;SHT30;62093;37.614;15.072;2022-11-20T13:41:24;18.85;67.21
73780;SHT30;62093;37.614;15.072;2022-11-20T13:46:44;18.81;67.33
73780;SHT30;62093;37.614;15.072;2022-11-20T13:49:25;18.78;67.31
73780;SHT30;62093;37.614;15.072;2022-11-20T14:00:02;18.75;67.96
73780;SHT30;62093;37.614;15.072;2022-11-20T14:02:37;18.68;68.02
73780;SHT30;62093;37.614;15.072;2022-11-20T14:05:04;18.74;67.96
73780;SHT30;62093;37.614;15.072;2022-11-20T14:07:41;18.74;67.45
73780;SHT30;62093;37.614;15.072;2022-11-20T14:10:21;18.68;67.66
73780;SHT30;62093;37.614;15.072;2022-11-20T14:12:47;18.72;67.93
73780;SHT30;62093;37.614;15.072;2022-11-20T14:15:43;18.72;67.94
73780;SHT30;62093;37.614;15.072;2022-11-20T14:18:14;18.75;67.90
73780;SHT30;62093;37.614;15.072;2022-11-20T14:20:41;18.68;67.96
73780;SHT30;62093;37.614;15.072;2022-11-20T14:23:09;18.69;68.07
73780;SHT30;62093;37.614;15.072;2022-11-20T14:25:36;18.63;67.89
73780;SHT30;62093;37.614;15.072;2022-11-20T14:28:02;18.65;67.94
73780;SHT30;62093;37.614;15.072;2022-11-20T14:30:42;18.64;67.93
73780;SHT30;62093;37.614;15.072;2022-11-20T14:33:12;18.61;67.97
73780;SHT30;62093;37.614;15.072;2022-11-20T14:35:45;18.65;67.98
73780;SHT30;62093;37.614;15.072;2022-11-20T14:38:14;18.65;67.91
73780;SHT30;62093;37.614;15.072;2022-11-20T14:40:40;18.63;67.88
73780;SHT30;62093;37.614;15.072;2022-11-20T14:43:26;18.61;68.01
73780;SHT30;62093;37.614;15.072;2022-11-20T14:46:01;18.64;67.72
73780;SHT30;62093;37.614;15.072;2022-11-20T14:48:35;18.65;67.97
73780;SHT30;62093;37.614;15.072;2022-11-20T14:51:02;18.60;67.73
73780;SHT30;62093;37.614;15.072;2022-11-20T14:53:28;18.64;67.82
73780;SHT30;62093;37.614;15.072;2022-11-20T14:55:59;18.63;67.76
73780;SHT30;62093;37.614;15.072;2022-11-20T14:58:30;18.60;67.76
73780;SHT30;62093;37.614;15.072;2022-11-20T15:01:05;18.60;67.03
73780;SHT30;62093;37.614;15.072;2022-11-20T15:03:36;18.60;67.44
73780;SHT30;62093;37.614;15.072;2022-11-20T15:06:02;18.58;67.52
73780;SHT30;62093;37.614;15.072;2022-11-20T15:08:28;18.58;67.53
73780;SHT30;62093;37.614;15.072;2022-11-20T15:10:56;18.58;67.39
73780;SHT30;62093;37.614;15.072;2022-11-20T15:13:37;18.60;67.63
73780;SHT30;62093;37.614;15.072;2022-11-20T15:16:18;18.61;67.30
73780;SHT30;62093;37.614;15.072;2022-11-20T15:18:44;18.58;67.70
73780;SHT30;62093;37.614;15.072;2022-11-20T15:21:12;18.58;67.64
73780;SHT30;62093;37.614;15.072;2022-11-20T15:23:38;18.58;67.60
73780;SHT30;62093;37.614;15.072;2022-11-20T15:26:08;18.57;67.30
73780;SHT30;62093;37.614;15.072;2022-11-20T15:28:41;18.60;67.39
73780;SHT30;62093;37.614;15.072;2022-11-20T15:31:11;18.57;67.54
73780;SHT30;62093;37.614;15.072;2022-11-20T15:33:38;18.57;67.28
73780;SHT30;62093;37.614;15.072;2022-11-20T15:36:04;18.58;67.47
73780;SHT30;62093;37.614;15.072;2022-11-20T15:38:30;18.58;66.96
73780;SHT30;62093;37.614;15.072;2022-11-20T15:40:56;18.57;67.41
73780;SHT30;62093;37.614;15.072;2022-11-20T15:43:22;18.54;67.35
73780;SHT30;62093;37.614;15.072;2022-11-20T15:45:53;18.53;66.86
73780;SHT30;62093;37.614;15.072;2022-11-20T15:48:24;18.48;66.96
73780;SHT30;62093;37.614;15.072;2022-11-20T15:50:59;18.53;67.36
73780;SHT30;62093;37.614;15.072;2022-11-20T15:53:26;18.54;67.13
73780;SHT30;62093;37.614;15.072;2022-11-20T15:55:52;18.53;67.02
73780;SHT30;62093;37.614;15.072;2022-11-20T15:58:17;18.48;66.73
73780;SHT30;62093;37.614;15.072;2022-11-20T16:00:44;18.50;67.08
73780;SHT30;62093;37.614;15.072;2022-11-20T16:03:14;18.50;66.98
73780;SHT30;62093;37.614;15.072;2022-11-20T16:05:40;18.50;67.25
73780;SHT30;62093;37.614;15.072;2022-11-20T16:08:06;18.50;66.93
73780;SHT30;62093;37.614;15.072;2022-11-20T16:10:32;18.48;67.03
73780;SHT30;62093;37.614;15.072;2022-11-20T16:12:58;18.47;66.76
73780;SHT30;62093;37.614;15.072;2022-11-20T16:15:51;18.44;67.43
73780;SHT30;62093;37.614;15.072;2022-11-20T16:18:20;18.44;67.24
73780;SHT30;62093;37.614;15.072;2022-11-20T16:20:53;18.48;66.82
73780;SHT30;62093;37.614;15.072;2022-11-20T16:23:20;18.43;66.85
73780;SHT30;62093;37.614;15.072;2022-11-20T16:25:46;18.40;67.22
73780;SHT30;62093;37.614;15.072;2022-11-20T16:28:13;18.45;66.88
73780;SHT30;62093;37.614;15.072;2022-11-20T16:30:39;18.43;67.04
73780;SHT30;62093;37.614;15.072;2022-11-20T16:33:13;18.43;67.20
73780;SHT30;62093;37.614;15.072;2022-11-20T16:35:40;18.43;67.29
73780;SHT30;62093;37.614;15.072;2022-11-20T16:38:06;18.41;66.98
73780;SHT30;62093;37.614;15.072;2022-11-20T16:40:32;18.40;67.01
73780;SHT30;62093;37.614;15.072;2022-11-20T16:43:07;18.40;67.17
73780;SHT30;62093;37.614;15.072;2022-11-20T16:45:33;18.38;66.88
73780;SHT30;62093;37.614;15.072;2022-11-20T16:47:59;18.38;66.60
73780;SHT30;62093;37.614;15.072;2022-11-20T16:50:25;18.40;67.01
73780;SHT30;62093;37.614;15.072;2022-11-20T16:52:51;18.40;67.09
73780;SHT30;62093;37.614;15.072;2022-11-20T16:55:17;18.41;66.98
73780;SHT30;62093;37.614;15.072;2022-11-20T16:57:43;18.45;67.01
73780;SHT30;62093;37.614;15.072;2022-11-20T17:00:09;18.43;66.87
73780;SHT30;62093;37.614;15.072;2022-11-20T17:02:35;18.40;67.16